Time;durP1;ratioP1;P1;durP2;ratioP2;P2;SDS_P1;SDS_P2;PMS_P1;PMS_P2;Temp;Humidity;BMP_temperature;BMP_pressure;BME280_temperature;BME280_humidity;BME280_pressure;Samples;Min_cycle;Max_cycle;Signal;HPM_P1;HPM_P2
2023/06/09 00:01:12;;;;;;;;;23.75;21.25;;;;;24.58;44.87;100636.34;5016456;28;45493;-46
2023/06/09 00:03:39;;;;;;;;;20.00;18.25;;;;;24.58;44.88;100636.34;5016604;28;45497;-46
2023/06/09 00:06:05;;;;;;;;;17.50;16.25;;;;;24.56;44.77;100635.75;5016134;28;45402;-47
2023/06/09 00:08:31;;;;;;;;;24.25;20.00;;;;;24.51;44.71;100626.69;5016700;28;45474;-52
2023/06/09 00:10:56;;;;;;;;;21.00;17.00;;;;;24.51;44.33;100627.50;5015055;28;46174;-46
2023/06/09 00:13:22;;;;;;;;;18.00;16.00;;;;;24.50;45.00;100634.00;5015878;28;45296;-47
2023/06/09 00:15:47;;;;;;;;;20.00;18.25;;;;;24.47;44.42;100633.66;5015604;28;45576;-46
2023/06/09 00:18:15;;;;;;;;;23.75;20.50;;;;;24.47;44.94;100628.22;5016236;28;45276;-47
2023/06/09 00:20:42;;;;;;;;;20.25;20.25;;;;;24.45;45.00;100625.75;5015672;28;45331;-47
2023/06/09 00:23:08;;;;;;;;;23.00;22.00;;;;;24.41;44.89;100619.16;5013756;28;45528;-47
2023/06/09 00:25:34;;;;;;;;;20.25;19.25;;;;;24.32;45.31;100609.69;5016069;28;45308;-49
2023/06/09 00:27:59;;;;;;;;;25.25;20.25;;;;;24.30;45.48;100609.91;5016065;28;45386;-47
2023/06/09 00:30:24;;;;;;;;;20.00;18.75;;;;;24.40;45.31;100628.38;5015330;28;46407;-48
2023/06/09 00:32:50;;;;;;;;;21.25;19.50;;;;;24.38;45.14;100617.72;5015822;28;45436;-47
2023/06/09 00:35:15;;;;;;;;;24.25;20.50;;;;;24.36;45.27;100616.31;5015841;28;45540;-46
2023/06/09 00:37:41;;;;;;;;;22.75;20.00;;;;;24.37;45.15;100615.22;5015777;28;45424;-49
2023/06/09 00:40:07;;;;;;;;;22.25;21.00;;;;;24.36;45.43;100614.41;5015408;28;47687;-48
2023/06/09 00:42:33;;;;;;;;;22.00;20.00;;;;;24.34;45.25;100607.56;5015871;28;45318;-46
2023/06/09 00:44:58;;;;;;;;;19.50;17.25;;;;;24.31;45.62;100603.44;5015855;28;45475;-49
2023/06/09 00:47:26;;;;;;;;;20.25;20.25;;;;;24.31;45.08;100597.16;4998149;28;45228;-48
2023/06/09 00:49:52;;;;;;;;;21.00;20.50;;;;;23.86;45.55;100529.94;5015272;28;46369;-47
2023/06/09 00:52:17;;;;;;;;;21.20;19.60;;;;;24.29;45.40;100591.13;5015681;28;45473;-46
2023/06/09 00:54:43;;;;;;;;;19.25;19.25;;;;;24.18;45.52;100575.69;5015715;28;45307;-46
2023/06/09 00:57:10;;;;;;;;;26.25;21.75;;;;;24.19;45.20;100574.59;5015763;28;45497;-47
2023/06/09 00:59:35;;;;;;;;;21.25;19.00;;;;;24.26;45.06;100595.16;5015198;28;45503;-46
2023/06/09 01:02:03;;;;;;;;;18.25;17.00;;;;;24.24;45.22;100591.88;5015476;28;45433;-46
2023/06/09 01:04:32;;;;;;;;;20.00;18.25;;;;;24.24;45.25;100591.88;5015749;28;45263;-46
2023/06/09 01:07:08;;;;;;;;;21.25;16.50;;;;;24.24;45.33;100585.59;5015550;28;45394;-47
2023/06/09 01:09:41;;;;;;;;;17.50;17.50;;;;;24.23;45.08;100592.09;5015071;28;47108;-47
2023/06/09 01:12:19;;;;;;;;;23.25;20.25;;;;;24.17;45.17;100583.00;5014449;28;45412;-46
2023/06/09 01:14:53;;;;;;;;;22.25;18.00;;;;;24.10;45.42;100566.84;5015460;28;45467;-45
2023/06/09 01:17:19;;;;;;;;;21.00;18.50;;;;;24.17;45.19;100574.03;5014688;28;45617;-47
2023/06/09 01:19:51;;;;;;;;;23.75;22.50;;;;;24.20;45.27;100584.44;5015221;28;45748;-47
2023/06/09 01:22:49;;;;;;;;;18.80;16.00;;;;;24.19;45.20;100580.91;5015041;28;45426;-50
2023/06/09 01:25:26;;;;;;;;;25.00;21.00;;;;;24.18;45.66;100572.97;5015203;28;45342;-46
2023/06/09 01:27:52;;;;;;;;;20.25;19.25;;;;;24.18;45.66;100578.41;5015485;28;45343;-49
2023/06/09 01:30:21;;;;;;;;;19.75;19.75;;;;;24.15;45.42;100574.28;5014411;28;46263;-49
2023/06/09 01:32:48;;;;;;;;;24.20;20.60;;;;;24.01;45.85;100549.25;5015901;28;45460;-47
2023/06/09 01:35:14;;;;;;;;;19.00;18.40;;;;;24.07;45.90;100570.03;5018507;28;45449;-45
2023/06/09 01:37:40;;;;;;;;;22.50;20.00;;;;;24.08;46.03;100574.41;5018594;28;45441;-48
2023/06/09 01:40:08;;;;;;;;;21.25;18.50;;;;;24.02;46.10;100564.50;5018145;28;46976;-46
2023/06/09 01:42:33;;;;;;;;;23.00;21.60;;;;;24.00;46.07;100563.91;5018054;28;45403;-51
2023/06/09 01:44:58;;;;;;;;;19.75;18.25;;;;;23.98;46.38;100565.22;5000669;28;45517;-47
2023/06/09 01:47:24;;;;;;;;;24.75;23.00;;;;;23.97;46.13;100569.81;5018442;28;45579;-48
2023/06/09 01:50:04;;;;;;;;;25.00;21.75;;;;;23.89;46.07;100565.59;5017261;28;46347;-47
2023/06/09 01:52:49;;;;;;;;;20.60;18.20;;;;;23.91;46.46;100573.50;5018066;28;45432;-48
2023/06/09 01:55:19;;;;;;;;;23.50;21.50;;;;;23.86;46.57;100573.41;5018114;28;45398;-47
2023/06/09 01:57:56;;;;;;;;;23.25;22.00;;;;;23.81;46.83;100563.25;5018234;28;45531;-48
2023/06/09 02:00:24;;;;;;;;;21.25;20.00;;;;;23.78;46.92;100561.00;5017940;28;46819;-51
2023/06/09 02:02:55;;;;;;;;;19.80;19.00;;;;;23.74;47.05;100562.53;5017841;28;45315;-47
2023/06/09 02:05:22;;;;;;;;;22.25;19.50;;;;;23.71;46.76;100565.72;5017210;28;45429;-46
2023/06/09 02:07:49;;;;;;;;;22.50;22.00;;;;;23.67;47.04;100571.88;5018177;28;45506;-49
2023/06/09 02:10:16;;;;;;;;;21.00;20.00;;;;;23.63;47.38;100568.78;4999933;28;48223;-49
2023/06/09 02:12:41;;;;;;;;;22.75;19.25;;;;;23.59;47.40;100560.25;5018386;28;45403;-46
2023/06/09 02:15:07;;;;;;;;;23.75;20.00;;;;;23.58;47.31;100557.81;5018078;28;45774;-46
2023/06/09 02:17:33;;;;;;;;;20.00;20.00;;;;;23.56;47.63;100554.50;5018104;28;45456;-47
2023/06/09 02:19:58;;;;;;;;;22.00;19.75;;;;;;;;5017622;28;47146;-47
2023/06/09 02:22:24;;;;;;;;;21.50;20.25;;;;;23.49;47.56;100549.19;5017546;28;45389;-48
2023/06/09 02:24:50;;;;;;;;;24.75;21.00;;;;;23.48;47.61;100552.97;4999982;28;45698;-48
2023/06/09 02:27:15;;;;;;;;;23.50;21.25;;;;;23.48;47.61;100549.44;5017740;28;45303;-48
2023/06/09 02:29:41;;;;;;;;;21.75;20.50;;;;;23.45;47.78;100549.91;5017712;28;45482;-47
2023/06/09 02:32:06;;;;;;;;;20.00;19.25;;;;;23.42;47.65;100540.31;5017309;28;45337;-46
2023/06/09 02:34:32;;;;;;;;;21.50;19.75;;;;;23.41;47.37;100539.50;5017877;28;45415;-46
2023/06/09 02:36:58;;;;;;;;;22.00;20.00;;;;;23.40;47.74;100526.19;5017929;28;45477;-49
2023/06/09 02:39:24;;;;;;;;;22.50;22.00;;;;;23.33;47.56;100517.31;5017185;28;47123;-47
2023/06/09 02:41:49;;;;;;;;;22.75;19.75;;;;;23.40;47.71;100531.59;5017581;28;45370;-45
2023/06/09 02:44:15;;;;;;;;;20.50;20.25;;;;;23.38;47.66;100525.56;5016855;28;45526;-48
2023/06/09 02:46:42;;;;;;;;;22.50;21.00;;;;;23.39;47.96;100532.69;5017572;28;45482;-49
2023/06/09 02:49:08;;;;;;;;;23.00;19.75;;;;;23.40;47.85;100528.91;5016998;28;46203;-47
2023/06/09 02:51:36;;;;;;;;;31.00;20.50;;;;;23.34;47.68;100518.97;5017353;28;45433;-47
2023/06/09 02:54:02;;;;;;;;;24.25;20.00;;;;;23.40;47.62;100534.31;5016867;28;45419;-45
2023/06/09 02:56:27;;;;;;;;;20.00;19.25;;;;;23.35;47.86;100535.03;5017397;28;45433;-49
2023/06/09 02:58:53;;;;;;;;;23.25;21.00;;;;;23.37;47.85;100527.47;5017108;28;45681;-48
2023/06/09 03:01:19;;;;;;;;;21.25;21.25;;;;;23.36;47.92;100530.44;5016941;28;45556;-47
2023/06/09 03:03:45;;;;;;;;;22.75;21.00;;;;;23.33;48.02;100526.28;5016557;28;45452;-48
2023/06/09 03:06:13;;;;;;;;;20.25;19.75;;;;;23.33;48.05;100541.75;5016485;28;45531;-48
2023/06/09 03:08:39;;;;;;;;;22.25;22.25;;;;;23.23;47.94;100525.25;5016997;28;45954;-47
2023/06/09 03:11:04;;;;;;;;;25.50;22.75;;;;;23.29;48.07;100535.13;4999263;28;45418;-46
2023/06/09 03:13:30;;;;;;;;;18.00;18.00;;;;;23.26;48.19;100544.59;5017125;28;45411;-46
2023/06/09 03:15:55;;;;;;;;;20.00;20.00;;;;;23.23;48.08;100544.22;5017264;28;45414;-44
2023/06/09 03:18:20;;;;;;;;;22.75;22.25;;;;;23.11;48.44;100531.47;5016701;28;45320;-47
2023/06/09 03:20:48;;;;;;;;;22.25;20.75;;;;;23.18;48.15;100544.94;5016987;28;45418;-45
2023/06/09 03:23:14;;;;;;;;;20.25;18.50;;;;;23.18;48.23;100549.53;5016850;28;45591;-46
2023/06/09 03:25:39;;;;;;;;;22.00;21.25;;;;;23.13;48.03;100542.94;5017220;28;45331;-45
2023/06/09 03:28:04;;;;;;;;;25.00;21.00;;;;;23.14;48.25;100547.28;5016833;28;45989;-46
2023/06/09 03:30:30;;;;;;;;;17.75;17.75;;;;;23.13;48.42;100547.50;5016350;28;45385;-48
2023/06/09 03:32:55;;;;;;;;;23.25;20.25;;;;;23.00;48.27;100531.44;5017001;28;45372;-47
2023/06/09 03:35:21;;;;;;;;;24.00;20.75;;;;;23.04;48.41;100544.31;4998865;28;45660;-47
2023/06/09 03:37:46;;;;;;;;;21.50;19.50;;;;;23.05;48.21;100539.72;5016625;28;45942;-47
2023/06/09 03:40:15;;;;;;;;;18.75;16.50;;;;;23.04;48.36;100549.75;5016214;28;51388;-47
2023/06/09 03:42:40;;;;;;;;;24.50;19.75;;;;;23.00;48.42;100537.69;5016537;28;45448;-45
2023/06/09 03:45:06;;;;;;;;;22.25;20.50;;;;;22.97;48.50;100538.19;5016822;28;45450;-48
2023/06/09 03:47:32;;;;;;;;;21.50;20.00;;;;;22.82;48.28;100519.59;5016303;28;45808;-48
2023/06/09 03:49:57;;;;;;;;;22.50;19.75;;;;;22.92;48.61;100543.47;5016527;28;45331;-48
2023/06/09 03:52:26;;;;;;;;;25.50;20.75;;;;;22.88;48.50;100550.38;5016387;28;45318;-49
2023/06/09 03:54:51;;;;;;;;;25.25;22.25;;;;;22.87;48.79;100543.31;5016643;28;45321;-47
2023/06/09 03:57:16;;;;;;;;;21.25;21.25;;;;;22.87;49.07;100546.03;5015205;28;45938;-47
2023/06/09 03:59:41;;;;;;;;;23.25;17.25;;;;;22.74;48.96;100524.53;5016189;28;45446;-46
2023/06/09 04:02:07;;;;;;;;;20.00;19.50;;;;;22.79;48.87;100539.03;5016497;28;45382;-47
2023/06/09 04:04:32;;;;;;;;;19.00;18.00;;;;;22.85;49.13;100540.84;5016500;28;45649;-43
2023/06/09 04:06:59;;;;;;;;;23.25;20.50;;;;;22.82;49.04;100541.28;5016074;28;46708;-47
2023/06/09 04:09:24;;;;;;;;;25.75;22.75;;;;;22.70;48.89;100521.47;5015941;28;45516;-47
2023/06/09 04:11:50;;;;;;;;;23.25;21.00;;;;;22.79;49.25;100543.63;5016167;28;45405;-46
2023/06/09 04:14:16;;;;;;;;;20.75;17.00;;;;;22.75;49.05;100535.13;5016254;28;45238;-47
2023/06/09 04:16:41;;;;;;;;;20.00;20.00;;;;;22.75;49.27;100528.88;5015743;28;45521;-46
2023/06/09 04:19:06;;;;;;;;;25.00;24.00;;;;;22.74;49.42;100530.78;5015907;28;45668;-45
2023/06/09 04:21:33;;;;;;;;;17.75;17.75;;;;;22.66;49.44;100526.50;5016174;28;45445;-47
2023/06/09 04:23:58;;;;;;;;;23.50;20.25;;;;;22.70;49.17;100526.88;5016368;28;45337;-46
2023/06/09 04:26:24;;;;;;;;;25.75;23.00;;;;;22.60;49.21;100527.44;5015845;28;45711;-46
2023/06/09 04:28:49;;;;;;;;;21.75;21.50;;;;;22.64;49.05;100541.38;5015941;28;45370;-44
2023/06/09 04:31:18;;;;;;;;;27.50;21.00;;;;;22.68;49.67;100550.69;5015498;28;45386;-45
2023/06/09 04:33:46;;;;;;;;;24.25;19.75;;;;;22.66;49.18;100553.63;5016426;28;45357;-47
2023/06/09 04:36:13;;;;;;;;;23.50;21.50;;;;;22.66;49.35;100550.09;4997207;28;46351;-45
2023/06/09 04:38:39;;;;;;;;;22.75;19.50;;;;;22.64;48.94;100544.91;5015592;28;45448;-45
2023/06/09 04:41:04;;;;;;;;;21.50;21.50;;;;;22.64;49.32;100542.19;5016052;28;45402;-46
2023/06/09 04:43:32;;;;;;;;;20.75;18.50;;;;;22.65;49.39;100538.41;5015887;28;45322;-46
2023/06/09 04:45:59;;;;;;;;;23.75;19.00;;;;;22.65;48.99;100554.69;4997674;28;46357;-47
2023/06/09 04:48:25;;;;;;;;;19.00;18.00;;;;;22.62;49.24;100552.44;5015657;28;45422;-44
2023/06/09 04:50:51;;;;;;;;;25.00;19.25;;;;;22.58;49.40;100545.00;5015455;28;45413;-46
2023/06/09 04:53:18;;;;;;;;;21.50;20.50;;;;;22.64;49.17;100550.34;5016166;28;45393;-46
2023/06/09 04:55:44;;;;;;;;;21.75;21.00;;;;;22.64;49.17;100565.78;5015338;28;46329;-46
2023/06/09 04:58:09;;;;;;;;;23.25;21.75;;;;;22.64;49.12;100555.75;5015552;28;45434;-48
2023/06/09 05:00:35;;;;;;;;;23.75;22.00;;;;;22.61;48.63;100553.50;5015570;28;45346;-45
2023/06/09 05:03:01;;;;;;;;;29.25;26.25;;;;;22.61;48.92;100558.91;5014641;28;45586;-46
2023/06/09 05:05:26;;;;;;;;;27.00;25.25;;;;;22.61;49.19;100563.50;5015285;28;45799;-47
2023/06/09 05:07:51;;;;;;;;;27.00;25.25;;;;;22.56;49.27;100556.06;5015377;28;45417;-47
2023/06/09 05:10:20;;;;;;;;;26.00;23.50;;;;;22.61;49.28;100561.63;5019247;28;45346;-46
2023/06/09 05:12:45;;;;;;;;;26.25;22.25;;;;;22.62;49.10;100563.28;5019137;28;45396;-47
2023/06/09 05:15:11;;;;;;;;;26.50;25.75;;;;;22.63;49.02;100559.53;5018962;28;46201;-46
2023/06/09 05:17:37;;;;;;;;;25.50;22.75;;;;;22.65;49.28;100557.41;5018356;28;45388;-48
2023/06/09 05:20:08;;;;;;;;;26.00;22.25;;;;;22.67;49.38;100551.78;5019063;28;45351;-51
2023/06/09 05:22:35;;;;;;;;;24.25;22.75;;;;;22.61;48.97;100537.22;5019258;28;45284;-47
2023/06/09 05:25:01;;;;;;;;;22.25;19.25;;;;;22.75;49.25;100556.00;5018604;28;45625;-47
2023/06/09 05:27:26;;;;;;;;;24.50;24.00;;;;;22.77;49.10;100560.16;5018529;28;45345;-47
2023/06/09 05:29:52;;;;;;;;;26.50;23.00;;;;;22.81;48.79;100560.53;5018370;28;45383;-46
2023/06/09 05:32:17;;;;;;;;;24.00;21.00;;;;;22.80;48.74;100559.69;5018563;28;45381;-45
2023/06/09 05:34:44;;;;;;;;;23.75;23.00;;;;;22.82;48.53;100562.16;5018336;28;45423;-45
2023/06/09 05:37:09;;;;;;;;;25.50;23.00;;;;;22.83;48.61;100558.38;5018340;28;45418;-46
2023/06/09 05:39:34;;;;;;;;;26.50;22.50;;;;;22.83;48.71;100564.63;5018599;28;45896;-46
2023/06/09 05:42:00;;;;;;;;;25.25;22.50;;;;;22.86;48.37;100566.06;5018785;28;45581;-45
2023/06/09 05:44:26;;;;;;;;;28.75;22.00;;;;;22.86;48.32;100566.06;4999970;28;45524;-45
2023/06/09 05:46:51;;;;;;;;;22.50;20.25;;;;;22.88;48.25;100572.06;5017303;28;45442;-45
2023/06/09 05:49:17;;;;;;;;;22.00;19.25;;;;;22.92;48.31;100578.72;5017446;28;45438;-47
2023/06/09 05:51:42;;;;;;;;;20.25;17.00;;;;;22.87;48.06;100565.84;5018185;28;45437;-46
2023/06/09 05:54:07;;;;;;;;;21.50;20.25;;;;;22.92;47.82;100573.31;5018214;28;45392;-46
2023/06/09 05:56:33;;;;;;;;;19.25;19.25;;;;;22.93;47.61;100572.25;5018378;28;45323;-47
2023/06/09 05:59:02;;;;;;;;;28.25;21.50;;;;;-143.57;100.00;65101.44;5018250;28;45363;-49
2023/06/09 06:01:27;;;;;;;;;17.50;17.50;;;;;-143.57;100.00;65101.44;5018614;28;45410;-45
2023/06/09 06:03:53;;;;;;;;;18.25;18.25;;;;;-143.57;100.00;65101.44;4999651;28;46710;-46
2023/06/09 06:06:18;;;;;;;;;17.25;17.00;;;;;-143.57;100.00;65101.44;5018100;28;45365;-46
2023/06/09 06:08:44;;;;;;;;;22.25;19.00;;;;;-143.57;100.00;65101.44;5018090;28;45326;-46
2023/06/09 06:11:09;;;;;;;;;21.00;19.50;;;;;-143.57;100.00;65101.44;5018250;28;45353;-47
2023/06/09 06:13:35;;;;;;;;;22.25;18.75;;;;;-143.57;100.00;65101.44;5019108;28;46524;-48
2023/06/09 06:16:00;;;;;;;;;18.50;16.25;;;;;-143.57;100.00;65101.44;5018916;28;45449;-48
2023/06/09 06:18:26;;;;;;;;;18.00;17.25;;;;;-143.57;100.00;65101.44;5015327;28;45420;-49
2023/06/09 06:20:51;;;;;;;;;22.00;19.50;;;;;-143.57;100.00;65101.44;5015458;28;45571;-51
2023/06/09 06:23:17;;;;;;;;;24.00;20.50;;;;;-143.57;100.00;65101.44;5018281;28;46110;-55
2023/06/09 06:25:42;;;;;;;;;23.50;20.50;;;;;-143.57;100.00;65101.44;5018522;28;45429;-50
2023/06/09 06:28:07;;;;;;;;;22.50;18.50;;;;;-143.57;100.00;65101.44;5018378;28;45334;-48
2023/06/09 06:30:33;;;;;;;;;23.50;20.25;;;;;-143.57;100.00;65101.44;5017688;28;45477;-49
2023/06/09 06:32:58;;;;;;;;;23.00;20.00;;;;;-143.57;100.00;65101.44;5017094;28;46071;-49
2023/06/09 06:35:28;;;;;;;;;20.50;20.50;;;;;-143.57;100.00;65101.44;5017096;28;45239;-48
2023/06/09 06:37:55;;;;;;;;;23.00;21.50;;;;;-143.57;100.00;65101.44;5017422;28;45434;-49
2023/06/09 06:40:21;;;;;;;;;24.50;20.25;;;;;-143.57;100.00;65101.44;5017386;28;45341;-47
2023/06/09 06:42:46;;;;;;;;;18.25;18.00;;;;;-143.57;100.00;65101.44;5016942;28;45897;-51
2023/06/09 06:45:12;;;;;;;;;21.75;18.50;;;;;-143.57;100.00;65101.44;5016885;28;45455;-50
2023/06/09 06:47:37;;;;;;;;;23.00;19.50;;;;;-143.57;100.00;65101.44;4998946;28;45552;-47
2023/06/09 06:50:04;;;;;;;;;21.50;19.50;;;;;-143.57;100.00;65101.44;5017647;28;45385;-49
2023/06/09 06:52:29;;;;;;;;;20.20;17.60;;;;;-143.57;100.00;65101.44;5016694;28;46109;-47
2023/06/09 06:54:55;;;;;;;;;23.25;16.50;;;;;-143.57;100.00;65101.44;5016889;28;45396;-50
2023/06/09 06:57:21;;;;;;;;;22.00;19.00;;;;;-143.57;100.00;65101.44;5016652;28;45367;-45
2023/06/09 06:59:46;;;;;;;;;19.50;17.50;;;;;-143.57;100.00;65101.44;5017209;28;45366;-46
2023/06/09 07:02:11;;;;;;;;;18.00;17.50;;;;;-143.57;100.00;65101.44;5016611;28;45552;-48
2023/06/09 07:04:37;;;;;;;;;21.50;20.50;;;;;-143.57;100.00;65101.44;5016590;28;45263;-45
2023/06/09 07:07:02;;;;;;;;;22.75;19.00;;;;;-143.57;100.00;65101.44;5016794;28;45465;-47
2023/06/09 07:09:28;;;;;;;;;21.25;17.75;;;;;-143.57;100.00;65101.44;5017172;28;45565;-48
2023/06/09 07:11:53;;;;;;;;;21.00;17.50;;;;;-143.57;100.00;65101.44;5016579;28;47081;-46
2023/06/09 07:14:19;;;;;;;;;19.50;18.50;;;;;-143.57;100.00;65101.44;5016559;28;45319;-48
2023/06/09 07:16:44;;;;;;;;;21.25;19.25;;;;;-143.57;100.00;65101.44;5016105;28;45346;-46
2023/06/09 07:19:10;;;;;;;;;19.75;18.00;;;;;-143.57;100.00;65101.44;5014526;28;45534;-46
2023/06/09 07:21:35;;;;;;;;;20.00;18.25;;;;;-143.57;100.00;65101.44;5015027;28;45450;-48
2023/06/09 07:24:03;;;;;;;;;24.75;21.00;;;;;-143.57;100.00;65101.44;5013434;28;46564;-42
2023/06/09 07:26:29;;;;;;;;;18.60;16.80;;;;;-143.57;100.00;65101.44;5013111;28;45421;-47
2023/06/09 07:28:54;;;;;;;;;21.50;18.50;;;;;-143.57;100.00;65101.44;5025536;28;45469;-45
2023/06/09 07:31:20;;;;;;;;;46.50;38.50;;;;;-143.57;100.00;65101.44;5024360;28;46135;-46
2023/06/09 07:33:46;;;;;;;;;16.75;16.75;;;;;-143.57;100.00;65101.44;5013191;28;45925;-45
2023/06/09 07:36:11;;;;;;;;;19.00;16.00;;;;;-143.57;100.00;65101.44;5013325;28;45544;-44
2023/06/09 07:38:38;;;;;;;;;17.50;16.25;;;;;-143.57;100.00;65101.44;5013414;28;45477;-43
2023/06/09 07:41:04;;;;;;;;;16.00;15.40;;;;;-143.57;100.00;65101.44;5032377;28;46401;-44
2023/06/09 07:43:29;;;;;;;;;18.50;15.00;;;;;-143.57;100.00;65101.44;5032059;28;45463;-43
2023/06/09 07:45:54;;;;;;;;;18.25;16.50;;;;;-143.57;100.00;65101.44;5032380;28;45464;-45
2023/06/09 07:48:20;;;;;;;;;18.00;15.25;;;;;-143.57;100.00;65101.44;5032405;28;45462;-44
2023/06/09 07:50:45;;;;;;;;;13.75;12.75;;;;;-143.57;100.00;65101.44;5032209;28;47076;-47
2023/06/09 07:53:11;;;;;;;;;24.25;21.50;;;;;-143.57;100.00;65101.44;5031630;28;45494;-46
2023/06/09 07:55:36;;;;;;;;;16.75;16.00;;;;;-143.57;100.00;65101.44;5032511;28;45605;-48
2023/06/09 07:58:02;;;;;;;;;16.75;16.25;;;;;-143.57;100.00;65101.44;5032602;28;45481;-45
2023/06/09 08:00:27;;;;;;;;;18.25;16.00;;;;;-143.57;100.00;65101.44;5031926;28;45941;-50
2023/06/09 08:03:00;;;;;;;;;18.25;18.00;;;;;-143.57;100.00;65101.44;5031675;28;45488;-50
2023/06/09 08:05:26;;;;;;;;;15.60;14.00;;;;;-143.57;100.00;65101.44;5032214;28;45811;-43
2023/06/09 08:07:51;;;;;;;;;15.20;15.20;;;;;-143.57;100.00;65101.44;5027802;28;45562;-50
2023/06/09 08:10:17;;;;;;;;;18.50;16.00;;;;;-143.57;100.00;65101.44;5017262;28;55556;-48
2023/06/09 08:12:42;;;;;;;;;16.00;16.00;;;;;-143.57;100.00;65101.44;5011907;28;45492;-52
2023/06/09 08:15:09;;;;;;;;;13.50;12.50;;;;;-143.57;100.00;65101.44;4995079;28;45558;-50
2023/06/09 08:17:34;;;;;;;;;16.60;15.20;;;;;-143.57;100.00;65101.44;5013164;28;45406;-46
2023/06/09 08:20:00;;;;;;;;;18.25;15.75;;;;;-143.57;100.00;65101.44;5012767;28;45933;-48
2023/06/09 08:22:25;;;;;;;;;16.75;16.75;;;;;-143.57;100.00;65101.44;5012820;28;45303;-49
2023/06/09 08:24:50;;;;;;;;;15.75;15.25;;;;;-143.57;100.00;65101.44;5011941;28;45886;-51
2023/06/09 08:27:16;;;;;;;;;14.75;14.25;;;;;-143.57;100.00;65101.44;5012714;28;45727;-48
2023/06/09 08:29:41;;;;;;;;;13.50;13.50;;;;;-143.57;100.00;65101.44;5012563;28;46008;-43
2023/06/09 08:32:07;;;;;;;;;14.50;14.50;;;;;-143.57;100.00;65101.44;5012169;28;45916;-47
2023/06/09 08:34:32;;;;;;;;;20.50;16.75;;;;;-143.57;100.00;65101.44;5019321;28;45520;-47
2023/06/09 08:36:58;;;;;;;;;15.25;15.25;;;;;-143.57;100.00;65101.44;5027336;28;45478;-47
2023/06/09 08:39:23;;;;;;;;;14.75;14.75;;;;;-143.57;100.00;65101.44;4994623;28;46685;-46
2023/06/09 08:41:52;;;;;;;;;15.75;15.75;;;;;-143.57;100.00;65101.44;5012385;28;45422;-48
2023/06/09 08:44:19;;;;;;;;;15.00;14.60;;;;;-143.57;100.00;65101.44;5015413;28;45494;-45
2023/06/09 08:46:49;;;;;;;;;16.60;16.60;;;;;-143.57;100.00;65101.44;5016688;28;45504;-44
2023/06/09 08:49:16;;;;;;;;;15.80;12.00;;;;;-143.57;100.00;65101.44;5034654;28;45529;-47
2023/06/09 08:51:44;;;;;;;;;13.20;13.20;;;;;-143.57;100.00;65101.44;5035069;28;45520;-44
2023/06/09 08:54:13;;;;;;;;;16.20;15.80;;;;;-143.57;100.00;65101.44;5035548;28;45297;-41
2023/06/09 08:56:40;;;;;;;;;15.20;14.80;;;;;-143.57;100.00;65101.44;5035006;28;46478;-44
2023/06/09 08:59:06;;;;;;;;;15.40;14.20;;;;;-143.57;100.00;65101.44;5034997;28;46088;-50
2023/06/09 09:01:31;;;;;;;;;18.20;16.60;;;;;-143.57;100.00;65101.44;5035377;28;45441;-44
2023/06/09 09:03:57;;;;;;;;;17.25;14.75;;;;;-143.57;100.00;65101.44;5034305;28;45438;-45
2023/06/09 09:06:23;;;;;;;;;16.25;16.00;;;;;-143.57;100.00;65101.44;5035442;28;45532;-44
2023/06/09 09:08:49;;;;;;;;;15.40;14.80;;;;;-143.57;100.00;65101.44;5034951;28;46199;-47
2023/06/09 09:11:14;;;;;;;;;13.75;13.75;;;;;-143.57;100.00;65101.44;5034546;28;45586;-48
2023/06/09 09:13:42;;;;;;;;;20.67;18.33;;;;;-143.57;100.00;65101.44;5035151;28;45772;-46
2023/06/09 09:16:13;;;;;;;;;17.40;15.20;;;;;-143.57;100.00;65101.44;5034718;28;45444;-48
2023/06/09 09:18:45;;;;;;;;;17.00;17.00;;;;;-143.57;100.00;65101.44;5034267;28;47261;-50
2023/06/09 09:21:19;;;;;;;;;15.20;15.20;;;;;-143.57;100.00;65101.44;5034543;28;45449;-49
2023/06/09 09:23:55;;;;;;;;;17.60;15.40;;;;;-143.57;100.00;65101.44;5033934;28;45437;-41
2023/06/09 09:26:27;;;;;;;;;17.40;15.00;;;;;-143.57;100.00;65101.44;5034436;28;45403;-50
2023/06/09 09:28:55;;;;;;;;;17.40;15.80;;;;;-143.57;100.00;65101.44;5034708;28;46354;-41
2023/06/09 09:31:21;;;;;;;;;18.40;17.80;;;;;-143.57;100.00;65101.44;5034568;28;45577;-50
2023/06/09 09:33:49;;;;;;;;;14.75;14.50;;;;;-143.57;100.00;65101.44;5034198;28;45513;-47
2023/06/09 09:36:18;;;;;;;;;16.60;14.80;;;;;-143.57;100.00;65101.44;5021020;28;45472;-49
2023/06/09 09:38:44;;;;;;;;;16.00;14.60;;;;;-143.57;100.00;65101.44;5015187;28;45462;-41
2023/06/09 09:41:14;;;;;;;;;14.00;13.80;;;;;-143.57;100.00;65101.44;5014951;28;45409;-44
2023/06/09 09:43:40;;;;;;;;;16.00;15.80;;;;;-143.57;100.00;65101.44;5025263;28;46595;-50
2023/06/09 09:46:07;;;;;;;;;15.25;13.75;;;;;-143.57;100.00;65101.44;5034714;28;45547;-50
2023/06/09 09:48:35;;;;;;;;;17.00;15.80;;;;;-143.57;100.00;65101.44;5034136;28;46542;-47
2023/06/09 09:51:00;;;;;;;;;18.60;16.00;;;;;-143.57;100.00;65101.44;5033997;28;45379;-55
2023/06/09 09:53:26;;;;;;;;;17.25;17.25;;;;;-143.57;100.00;65101.44;5033654;28;45853;-48
2023/06/09 09:55:54;;;;;;;;;17.40;16.40;;;;;-143.57;100.00;65101.44;5033297;28;45468;-42
2023/06/09 09:58:33;;;;;;;;;17.60;15.20;;;;;-143.57;100.00;65101.44;5033752;28;45505;-47
2023/06/09 10:01:03;;;;;;;;;18.60;17.00;;;;;-143.57;100.00;65101.44;5033559;28;45441;-44
2023/06/09 10:03:30;;;;;;;;;18.80;18.00;;;;;-143.57;100.00;65101.44;5027403;28;45486;-45
2023/06/09 10:05:59;;;;;;;;;16.40;16.00;;;;;-143.57;100.00;65101.44;5014906;28;45609;-48
2023/06/09 10:08:28;;;;;;;;;16.00;15.60;;;;;-143.57;100.00;65101.44;5014458;28;47440;-47
2023/06/09 10:10:56;;;;;;;;;18.40;17.40;;;;;-143.57;100.00;65101.44;5014582;28;45409;-48
2023/06/09 10:13:22;;;;;;;;;17.40;14.60;;;;;-143.57;100.00;65101.44;5017564;28;45572;-49
2023/06/09 10:15:50;;;;;;;;;;;;;;;-143.57;100.00;65101.44;5032679;28;45658;-48
2023/06/09 10:18:16;;;;;;;;;;;;;;;-143.57;100.00;65101.44;5018145;28;46404;-43
2023/06/09 10:20:43;;;;;;;;;12.80;12.80;;;;;-143.57;100.00;65101.44;5022419;28;45576;-47
2023/06/09 10:23:08;;;;;;;;;13.60;12.60;;;;;-143.57;100.00;65101.44;5014061;28;45449;-48
2023/06/09 10:25:34;;;;;;;;;18.75;17.00;;;;;-143.57;100.00;65101.44;5014083;28;45426;-47
2023/06/09 10:28:00;;;;;;;;;15.00;13.75;;;;;-143.57;100.00;65101.44;4996216;28;46206;-45
2023/06/09 10:30:25;;;;;;;;;18.00;16.00;;;;;-143.57;100.00;65101.44;5028285;28;45643;-49
2023/06/09 10:32:57;;;;;;;;;;;;;;;-143.57;100.00;65101.44;5036186;28;45912;-50
2023/06/09 10:35:28;;;;;;;;;16.20;14.40;;;;;-143.57;100.00;65101.44;5033295;28;45492;-45
2023/06/09 10:37:56;;;;;;;;;13.20;13.20;;;;;-143.57;100.00;65101.44;5030375;28;47027;-48
2023/06/09 10:40:33;;;;;;;;;17.40;15.80;;;;;-143.57;100.00;65101.44;5017325;28;45517;-47
2023/06/09 10:43:07;;;;;;;;;17.00;15.60;;;;;-143.57;100.00;65101.44;5016113;28;45418;-48
2023/06/09 10:45:54;;;;;;;;;14.20;14.20;;;;;-143.57;100.00;65101.44;5021954;28;45254;-45
2023/06/09 10:48:41;;;;;;;;;16.20;14.20;;;;;-143.57;100.00;65101.44;5036338;28;46283;-45
2023/06/09 10:51:26;;;;;;;;;15.80;15.40;;;;;-143.57;100.00;65101.44;5026736;28;45905;-45
2023/06/09 10:54:26;;;;;;;;;16.60;15.80;;;;;-143.57;100.00;65101.44;5032977;28;45610;-47
2023/06/09 10:56:57;;;;;;;;;15.40;13.40;;;;;-143.57;100.00;65101.44;4972690;28;46462;-50
2023/06/09 10:59:31;;;;;;;;;16.60;14.80;;;;;-143.57;100.00;65101.44;4979792;28;47028;-43
2023/06/09 11:02:05;;;;;;;;;16.00;13.40;;;;;-143.57;100.00;65101.44;4990996;28;45758;-49
2023/06/09 11:04:41;;;;;;;;;15.40;15.40;;;;;-143.57;100.00;65101.44;4985871;28;45713;-50